createdAt,value
2019-06-07T00:00:30.746Z,16.85
2019-06-07T00:02:39.510Z,16.77
2019-06-07T00:05:09.808Z,16.67
2019-06-07T00:07:38.298Z,16.72
2019-06-07T00:10:07.078Z,16.78
2019-06-07T00:12:35.471Z,16.78
2019-06-07T00:15:04.549Z,16.75
2019-06-07T00:17:33.012Z,16.81
2019-06-07T00:20:01.369Z,16.58
2019-06-07T00:22:33.319Z,16.66
2019-06-07T00:24:59.940Z,16.66
2019-06-07T00:27:28.293Z,16.72
2019-06-07T00:29:56.700Z,16.69
2019-06-07T00:32:25.109Z,16.77
2019-06-07T00:34:53.544Z,16.70
2019-06-07T00:37:25.205Z,16.70
2019-06-07T00:40:12.980Z,16.70
2019-06-07T00:42:24.242Z,16.71
2019-06-07T00:44:52.356Z,16.69
2019-06-07T00:47:24.919Z,16.66
2019-06-07T00:49:50.909Z,16.61
2019-06-07T00:53:11.467Z,16.47
2019-06-07T00:54:49.431Z,16.42
2019-06-07T00:57:19.497Z,16.39
2019-06-07T00:59:47.954Z,16.31
2019-06-07T01:02:18.535Z,16.17
2019-06-07T01:04:46.536Z,16.19
2019-06-07T01:07:17.087Z,16.15
2019-06-07T01:09:45.016Z,16.09
2019-06-07T01:12:14.264Z,16.03
2019-06-07T01:14:43.556Z,15.98
2019-06-07T01:17:40.796Z,15.92
2019-06-07T01:19:58.246Z,15.86
2019-06-07T01:22:29.067Z,15.88
2019-06-07T01:24:56.839Z,15.85
2019-06-07T01:27:25.621Z,15.56
2019-06-07T01:29:54.033Z,15.28
2019-06-07T01:32:24.672Z,15.29
2019-06-07T01:34:52.606Z,15.30
2019-06-07T01:37:24.912Z,15.32
2019-06-07T01:39:51.159Z,15.21
2019-06-07T01:42:20.425Z,15.20
2019-06-07T01:44:49.705Z,15.15
2019-06-07T01:47:20.374Z,15.07
2019-06-07T01:49:48.238Z,15.00
2019-06-07T01:52:16.711Z,14.89
2019-06-07T01:54:58.718Z,14.81
2019-06-07T01:57:30.934Z,14.70
2019-06-07T01:59:45.341Z,14.45
2019-06-07T02:02:13.756Z,14.25
2019-06-07T02:04:42.159Z,14.29
2019-06-07T02:07:10.568Z,14.26
2019-06-07T02:09:38.970Z,14.20
2019-06-07T02:12:25.013Z,14.21
2019-06-07T02:14:37.502Z,14.09
2019-06-07T02:17:06.019Z,13.99
2019-06-07T02:19:34.490Z,14.02
2019-06-07T02:22:02.977Z,13.89
2019-06-07T02:24:35.309Z,13.70
2019-06-07T02:27:01.513Z,13.73
2019-06-07T02:29:33.378Z,13.69
2019-06-07T02:32:00.057Z,13.72
2019-06-07T02:34:35.926Z,13.74
2019-06-07T02:36:58.578Z,13.63
2019-06-07T02:39:28.831Z,13.53
2019-06-07T02:41:57.397Z,13.46
2019-06-07T02:44:29.917Z,13.27
2019-06-07T02:46:55.932Z,13.24
2019-06-07T02:49:28.405Z,13.29
2019-06-07T02:51:54.513Z,13.32
2019-06-07T02:54:23.982Z,13.18
2019-06-07T02:56:58.751Z,12.91
2019-06-07T02:59:52.177Z,13.04
2019-06-07T03:01:53.902Z,13.07
2019-06-07T03:04:22.376Z,13.08
2019-06-07T03:06:51.400Z,13.07
2019-06-07T03:09:19.865Z,12.78
2019-06-07T03:11:50.413Z,12.76
2019-06-07T03:14:20.785Z,12.81
2019-06-07T03:17:03.609Z,12.72
2019-06-07T03:19:37.899Z,12.63
2019-06-07T03:22:05.460Z,12.63
2019-06-07T03:24:39.223Z,12.51
2019-06-07T03:29:36.667Z,12.43
2019-06-07T03:32:05.186Z,12.54
2019-06-07T03:34:39.267Z,12.78
2019-06-07T03:37:03.708Z,12.77
2019-06-07T03:39:33.751Z,12.93
2019-06-07T03:42:06.715Z,12.89
2019-06-07T03:44:35.818Z,13.02
2019-06-07T03:47:02.493Z,13.09
2019-06-07T03:49:35.455Z,13.15
2019-06-07T03:52:01.035Z,13.23
2019-06-07T03:54:29.562Z,13.26
2019-06-07T03:56:57.942Z,13.37
2019-06-07T03:59:28.252Z,13.42
2019-06-07T04:01:56.482Z,13.50
2019-06-07T04:04:24.908Z,13.53
2019-06-07T04:06:53.315Z,13.36
2019-06-07T04:09:21.727Z,13.46
2019-06-07T04:11:50.141Z,13.58
2019-06-07T04:14:18.558Z,13.56
2019-06-07T04:16:46.970Z,13.55
2019-06-07T04:19:15.398Z,13.47
2019-06-07T04:21:43.798Z,13.40
2019-06-07T04:24:12.213Z,13.37
2019-06-07T04:26:43.957Z,13.52
2019-06-07T04:29:41.365Z,13.65
2019-06-07T04:31:42.931Z,13.79
2019-06-07T04:34:11.178Z,13.69
2019-06-07T04:36:55.100Z,13.74
2019-06-07T04:39:09.785Z,13.79
2019-06-07T04:41:40.917Z,13.88
2019-06-07T04:44:11.558Z,14.00
2019-06-07T04:46:42.874Z,14.08
2019-06-07T04:49:14.385Z,14.06
2019-06-07T04:51:44.871Z,14.19
2019-06-07T04:54:13.296Z,14.31
2019-06-07T04:56:44.474Z,14.27
2019-06-07T04:59:11.860Z,14.36
2019-06-07T05:01:42.577Z,14.05
2019-06-07T05:04:10.478Z,14.16
2019-06-07T05:06:40.335Z,14.29
2019-06-07T05:09:09.078Z,14.69
2019-06-07T05:11:39.302Z,14.86
2019-06-07T05:14:07.932Z,14.88
2019-06-07T05:16:40.277Z,15.59
2019-06-07T05:19:06.580Z,17.43
2019-06-07T05:21:54.272Z,19.59
2019-06-07T05:24:10.629Z,21.61
2019-06-07T05:26:39.196Z,23.38
2019-06-07T05:29:07.815Z,24.13
2019-06-07T05:31:39.578Z,24.84
2019-06-07T05:34:06.338Z,25.65
2019-06-07T05:36:36.700Z,26.58
2019-06-07T05:39:07.512Z,27.22
2019-06-07T05:41:39.293Z,26.96
2019-06-07T05:44:12.553Z,26.48
2019-06-07T05:46:38.651Z,26.96
2019-06-07T05:49:06.757Z,27.57
2019-06-07T05:51:37.263Z,28.47
2019-06-07T05:54:05.295Z,29.32
2019-06-07T05:56:35.726Z,29.42
2019-06-07T05:59:03.883Z,29.44
2019-06-07T06:01:58.930Z,30.46
2019-06-07T06:04:02.431Z,30.46
2019-06-07T06:06:30.826Z,30.53
2019-06-07T06:09:13.544Z,30.99
2019-06-07T06:11:43.000Z,30.85
2019-06-07T06:14:07.654Z,30.78
2019-06-07T06:16:29.750Z,31.14
2019-06-07T06:18:58.154Z,31.24
2019-06-07T06:21:26.570Z,31.60
2019-06-07T06:23:55.036Z,31.96
2019-06-07T06:26:23.470Z,31.78
2019-06-07T06:28:51.925Z,32.30
2019-06-07T06:31:20.415Z,32.36
2019-06-07T06:33:50.133Z,32.05
2019-06-07T06:36:18.938Z,31.56
2019-06-07T06:38:49.749Z,32.18
2019-06-07T06:41:17.679Z,31.86
2019-06-07T06:43:49.434Z,31.88
2019-06-07T06:46:37.281Z,32.41
2019-06-07T06:48:51.423Z,30.99
2019-06-07T06:51:16.547Z,30.97
2019-06-07T06:53:46.902Z,30.15
2019-06-07T06:56:15.091Z,31.07
2019-06-07T06:59:21.773Z,31.09
2019-06-07T07:01:13.637Z,30.90
2019-06-07T07:04:00.071Z,30.64
2019-06-07T07:06:25.918Z,30.86
2019-06-07T07:08:47.930Z,30.02
2019-06-07T07:11:14.972Z,29.24
2019-06-07T07:13:45.323Z,29.62
2019-06-07T07:16:13.506Z,29.15
2019-06-07T07:18:41.901Z,28.48
2019-06-07T07:21:10.314Z,28.80
2019-06-07T07:23:38.723Z,29.29
2019-06-07T07:26:07.128Z,29.30
2019-06-07T07:28:35.522Z,29.57
2019-06-07T07:31:03.953Z,29.37
2019-06-07T07:34:20.941Z,28.91
2019-06-07T07:36:18.915Z,28.42
2019-06-07T07:38:32.596Z,28.15
2019-06-07T07:41:14.145Z,28.50
2019-06-07T07:43:31.755Z,27.99
2019-06-07T07:46:03.427Z,27.97
2019-06-07T07:48:30.388Z,28.34
2019-06-07T07:51:01.097Z,28.55
2019-06-07T07:53:47.640Z,28.01
2019-06-07T07:56:00.307Z,27.95
2019-06-07T07:58:29.158Z,28.05
2019-06-07T08:01:09.542Z,28.68
2019-06-07T08:03:27.655Z,27.70
2019-06-07T08:05:58.943Z,26.68
2019-06-07T08:08:26.203Z,25.87
2019-06-07T08:10:56.476Z,25.38
2019-06-07T08:13:27.249Z,24.41
2019-06-07T08:15:59.113Z,24.15
2019-06-07T08:18:25.287Z,23.74
2019-06-07T08:21:20.282Z,23.97
2019-06-07T08:23:23.941Z,23.94
2019-06-07T08:25:56.309Z,24.33
2019-06-07T08:28:22.497Z,24.71
2019-06-07T08:30:57.222Z,25.21
2019-06-07T08:33:26.406Z,25.46
2019-06-07T08:36:10.459Z,25.60
2019-06-07T08:38:27.442Z,25.39
2019-06-07T08:40:56.801Z,24.89
2019-06-07T08:43:21.571Z,24.50
2019-06-07T08:45:51.269Z,24.04
2019-06-07T08:48:28.129Z,24.22
2019-06-07T08:50:54.261Z,24.14
2019-06-07T08:53:20.358Z,23.44
2019-06-07T08:55:48.833Z,23.03
2019-06-07T08:58:17.178Z,23.21
2019-06-07T09:00:47.439Z,23.00
2019-06-07T09:03:15.718Z,23.10
2019-06-07T09:05:44.117Z,23.34
2019-06-07T09:08:29.386Z,23.36
2019-06-07T09:10:42.646Z,23.01
2019-06-07T09:13:12.053Z,22.94
2019-06-07T09:15:40.648Z,23.30
2019-06-07T09:18:40.087Z,24.09
2019-06-07T09:20:45.483Z,24.00
2019-06-07T09:23:17.409Z,23.90
2019-06-07T09:25:56.473Z,23.76
2019-06-07T09:28:19.752Z,23.23
2019-06-07T09:30:45.672Z,23.16
2019-06-07T09:33:14.231Z,23.49
2019-06-07T09:35:42.658Z,23.28
2019-06-07T09:38:24.262Z,23.27
2019-06-07T09:40:41.265Z,23.15
2019-06-07T09:45:39.884Z,23.14
2019-06-07T09:48:13.402Z,22.79
2019-06-07T09:50:38.519Z,22.74
2019-06-07T09:53:20.098Z,22.62
2019-06-07T09:55:37.104Z,22.82
2019-06-07T09:58:47.550Z,23.32
2019-06-07T10:00:41.976Z,23.30
2019-06-07T10:03:17.700Z,22.90
2019-06-07T10:05:35.973Z,22.89
2019-06-07T10:08:38.056Z,23.17
2019-06-07T10:13:04.134Z,24.09
2019-06-07T10:15:32.869Z,24.55
2019-06-07T10:18:01.279Z,24.17
2019-06-07T10:20:29.679Z,23.65
2019-06-07T10:22:59.583Z,23.41
2019-06-07T10:25:28.024Z,23.38
2019-06-07T10:27:56.442Z,23.47
2019-06-07T10:30:24.971Z,23.81
2019-06-07T10:32:53.382Z,23.84
2019-06-07T10:35:21.778Z,23.22
2019-06-07T10:37:50.183Z,22.69
2019-06-07T10:40:18.815Z,22.97
2019-06-07T10:42:47.266Z,23.53
2019-06-07T10:45:15.900Z,23.75
2019-06-07T10:47:44.315Z,24.15
2019-06-07T10:50:13.820Z,24.05
2019-06-07T10:52:42.331Z,24.20
2019-06-07T10:55:11.002Z,24.56
2019-06-07T10:57:39.407Z,24.41
2019-06-07T11:00:11.843Z,23.87
2019-06-07T11:02:40.681Z,24.06
2019-06-07T11:05:10.194Z,23.97
2019-06-07T11:07:38.707Z,23.90
2019-06-07T11:10:14.564Z,23.96
2019-06-07T11:12:37.887Z,24.16
2019-06-07T11:15:08.865Z,24.19
2019-06-07T11:17:37.298Z,23.95
2019-06-07T11:20:10.441Z,23.69
2019-06-07T11:22:38.889Z,23.50
2019-06-07T11:25:09.227Z,23.76
2019-06-07T11:27:38.357Z,24.11
2019-06-07T11:30:08.388Z,24.15
2019-06-07T11:32:36.876Z,24.33
2019-06-07T11:35:08.528Z,24.27
2019-06-07T11:37:36.994Z,24.08
2019-06-07T11:40:27.779Z,23.82
2019-06-07T11:42:40.262Z,23.89
2019-06-07T11:45:10.526Z,24.16
2019-06-07T11:47:39.597Z,24.42
2019-06-07T11:50:09.620Z,24.61
2019-06-07T11:52:38.622Z,24.44
2019-06-07T11:55:09.211Z,24.50
2019-06-07T11:57:37.801Z,24.36
2019-06-07T12:00:11.481Z,24.23
2019-06-07T12:02:40.035Z,24.38
2019-06-07T12:05:11.279Z,24.71
2019-06-07T12:07:38.909Z,24.86
2019-06-07T12:10:08.555Z,24.67
2019-06-07T12:12:37.571Z,24.80
2019-06-07T12:15:08.804Z,24.89
2019-06-07T12:17:37.602Z,24.75
2019-06-07T12:20:09.289Z,24.74
2019-06-07T12:22:37.929Z,24.44
2019-06-07T12:25:10.437Z,24.73
2019-06-07T12:27:38.983Z,24.81
2019-06-07T12:30:09.953Z,24.88
2019-06-07T12:32:38.373Z,24.52
2019-06-07T12:35:09.559Z,24.68
2019-06-07T12:37:44.550Z,24.90
2019-06-07T12:40:09.386Z,24.88
2019-06-07T12:42:38.036Z,24.88
2019-06-07T12:45:07.883Z,25.00
2019-06-07T12:47:36.280Z,25.22
2019-06-07T12:50:09.343Z,25.36
2019-06-07T12:52:37.746Z,25.21
2019-06-07T12:55:07.520Z,25.08
2019-06-07T12:57:35.901Z,24.92
2019-06-07T13:00:10.033Z,24.86
2019-06-07T13:02:38.426Z,25.09
2019-06-07T13:05:08.103Z,25.31
2019-06-07T13:07:36.497Z,25.23
2019-06-07T13:10:06.920Z,25.14
2019-06-07T13:12:35.338Z,25.26
2019-06-07T13:15:05.734Z,25.66
2019-06-07T13:17:34.127Z,25.82
2019-06-07T13:20:02.543Z,25.76
2019-06-07T13:22:30.941Z,25.41
2019-06-07T13:24:59.737Z,25.37
2019-06-07T13:27:33.230Z,25.51
2019-06-07T13:29:58.396Z,25.57
2019-06-07T13:32:28.138Z,25.73
2019-06-07T13:34:56.684Z,25.91
2019-06-07T13:37:25.501Z,26.07
2019-06-07T13:39:54.050Z,25.91
2019-06-07T13:42:22.867Z,26.11
2019-06-07T13:44:51.405Z,26.29
2019-06-07T13:47:21.086Z,26.18
2019-06-07T13:49:49.625Z,26.03
2019-06-07T13:52:18.015Z,26.25
2019-06-07T13:54:46.485Z,26.37
2019-06-07T13:57:14.886Z,26.43
2019-06-07T13:59:43.306Z,26.58
2019-06-07T14:02:11.720Z,26.61
2019-06-07T14:04:40.116Z,26.42
2019-06-07T14:07:08.538Z,26.02
2019-06-07T14:09:36.942Z,26.07
2019-06-07T14:12:05.360Z,26.12
2019-06-07T14:14:33.777Z,26.19
2019-06-07T14:17:02.263Z,26.17
2019-06-07T14:19:30.934Z,26.28
2019-06-07T14:21:59.416Z,26.28
2019-06-07T14:24:29.082Z,26.41
2019-06-07T14:27:06.262Z,26.31
2019-06-07T14:29:38.306Z,26.43
2019-06-07T14:32:08.337Z,26.21
2019-06-07T14:34:36.798Z,26.05
2019-06-07T14:37:06.156Z,25.72
2019-06-07T14:39:34.574Z,25.67
2019-06-07T14:42:09.045Z,25.94
2019-06-07T14:44:33.879Z,26.08
2019-06-07T14:47:02.636Z,26.30
2019-06-07T14:49:32.742Z,26.28
2019-06-07T14:52:01.326Z,26.19
2019-06-07T14:54:32.131Z,25.86
2019-06-07T14:57:03.054Z,25.98
2019-06-07T14:59:30.496Z,25.84
2019-06-07T15:01:59.038Z,25.94
2019-06-07T15:04:28.579Z,25.97
2019-06-07T15:06:56.995Z,26.02
2019-06-07T15:09:26.743Z,26.09
2019-06-07T15:11:55.641Z,26.36
2019-06-07T15:14:24.052Z,26.17
2019-06-07T15:16:52.507Z,26.15
2019-06-07T15:19:23.955Z,26.28
2019-06-07T15:21:51.047Z,26.31
2019-06-07T15:24:19.463Z,26.34
2019-06-07T15:26:47.876Z,26.34
2019-06-07T15:29:16.281Z,26.38
2019-06-07T15:31:44.706Z,26.66
2019-06-07T15:34:13.099Z,26.52
2019-06-07T15:36:41.517Z,26.19
2019-06-07T15:39:09.922Z,26.01
2019-06-07T15:41:39.793Z,26.05
2019-06-07T15:44:08.324Z,26.41
2019-06-07T15:46:37.999Z,26.45
2019-06-07T15:49:06.524Z,26.36
2019-06-07T15:51:36.551Z,26.27
2019-06-07T15:54:05.466Z,26.27
2019-06-07T15:56:34.709Z,26.26
2019-06-07T15:59:03.130Z,26.06
2019-06-07T16:01:31.557Z,25.95
2019-06-07T16:03:59.963Z,25.97
2019-06-07T16:06:28.393Z,25.89
2019-06-07T16:08:56.790Z,25.77
2019-06-07T16:11:25.205Z,25.85
2019-06-07T16:13:53.610Z,26.06
2019-06-07T16:16:22.025Z,26.34
2019-06-07T16:18:50.423Z,26.49
2019-06-07T16:21:18.821Z,26.43
2019-06-07T16:23:47.298Z,26.52
2019-06-07T16:26:15.804Z,26.54
2019-06-07T16:28:44.683Z,26.38
2019-06-07T16:31:13.112Z,26.36
2019-06-07T16:33:41.618Z,26.40
2019-06-07T16:36:10.410Z,26.54
2019-06-07T16:38:40.114Z,26.52
2019-06-07T16:41:08.520Z,26.55
2019-06-07T16:43:36.953Z,26.60
2019-06-07T16:46:05.791Z,26.50
2019-06-07T16:48:34.202Z,26.45
2019-06-07T16:51:02.601Z,26.42
2019-06-07T16:53:31.077Z,26.41
2019-06-07T16:55:59.527Z,26.16
2019-06-07T16:58:27.934Z,26.26
2019-06-07T17:00:56.632Z,26.23
2019-06-07T17:03:25.046Z,26.24
2019-06-07T17:05:53.438Z,26.38
2019-06-07T17:08:21.860Z,26.31
2019-06-07T17:10:50.255Z,26.16
2019-06-07T17:13:32.472Z,25.96
2019-06-07T17:15:49.077Z,25.85
2019-06-07T17:18:17.432Z,25.55
2019-06-07T17:20:47.286Z,25.41
2019-06-07T17:23:15.817Z,25.44
2019-06-07T17:25:45.231Z,25.58
2019-06-07T17:28:14.068Z,25.44
2019-06-07T17:30:43.917Z,25.32
2019-06-07T17:33:12.420Z,25.33
2019-06-07T17:35:42.197Z,25.13
2019-06-07T17:38:10.645Z,25.02
2019-06-07T17:40:40.655Z,25.04
2019-06-07T17:43:09.198Z,24.99
2019-06-07T17:45:37.602Z,25.03
2019-06-07T17:48:06.072Z,25.17
2019-06-07T17:50:34.533Z,24.94
2019-06-07T17:53:03.045Z,24.82
2019-06-07T17:55:31.449Z,24.81
2019-06-07T17:57:59.911Z,24.80
2019-06-07T18:00:37.108Z,24.72
2019-06-07T18:03:05.565Z,24.64
2019-06-07T18:05:33.971Z,24.69
2019-06-07T18:08:02.526Z,24.71
2019-06-07T18:10:36.757Z,24.85
2019-06-07T18:13:06.036Z,24.61
2019-06-07T18:15:46.569Z,24.60
2019-06-07T18:18:16.321Z,24.54
2019-06-07T18:20:45.186Z,24.61
2019-06-07T18:23:13.709Z,24.58
2019-06-07T18:25:42.104Z,24.54
2019-06-07T18:28:10.521Z,24.57
2019-06-07T18:30:39.149Z,24.48
2019-06-07T18:33:07.557Z,24.38
2019-06-07T18:35:36.137Z,24.31
2019-06-07T18:38:05.094Z,24.27
2019-06-07T18:40:33.480Z,24.17
2019-06-07T18:43:01.925Z,24.14
2019-06-07T18:45:30.371Z,24.12
2019-06-07T18:47:58.776Z,24.03
2019-06-07T18:50:27.179Z,23.94
2019-06-07T18:52:55.676Z,23.96
2019-06-07T18:55:24.103Z,23.96
2019-06-07T18:57:52.508Z,24.00
2019-06-07T19:00:23.230Z,23.96
2019-06-07T19:02:51.921Z,24.07
2019-06-07T19:05:21.682Z,24.30
2019-06-07T19:07:50.452Z,24.28
2019-06-07T19:10:19.658Z,24.32
2019-06-07T19:12:48.901Z,24.25
2019-06-07T19:15:18.589Z,24.30
2019-06-07T19:17:47.058Z,24.28
2019-06-07T19:20:17.484Z,24.37
2019-06-07T19:22:45.898Z,24.60
2019-06-07T19:25:14.962Z,24.55
2019-06-07T19:27:43.373Z,24.78
2019-06-07T19:30:12.832Z,24.71
2019-06-07T19:32:41.240Z,24.41
2019-06-07T19:35:10.502Z,24.25
2019-06-07T19:37:38.911Z,24.26
2019-06-07T19:40:07.762Z,24.13
2019-06-07T19:42:36.360Z,24.07
2019-06-07T19:45:29.102Z,24.29
2019-06-07T19:47:36.955Z,24.35
2019-06-07T19:50:08.017Z,24.50
2019-06-07T19:52:36.415Z,24.45
2019-06-07T19:55:09.323Z,24.28
2019-06-07T19:57:36.632Z,24.30
2019-06-07T20:00:14.003Z,24.16
2019-06-07T20:02:38.905Z,24.38
2019-06-07T20:05:10.371Z,24.51
2019-06-07T20:07:38.795Z,24.47
2019-06-07T20:10:07.224Z,24.52
2019-06-07T20:12:35.627Z,23.86
2019-06-07T20:15:27.127Z,23.45
2019-06-07T20:17:36.494Z,22.97
2019-06-07T20:20:10.142Z,22.04
2019-06-07T20:22:38.564Z,21.75
2019-06-07T20:25:09.307Z,21.43
2019-06-07T20:27:37.914Z,21.15
2019-06-07T20:30:10.034Z,21.35
2019-06-07T20:32:38.433Z,21.13
2019-06-07T20:35:08.464Z,20.50
2019-06-07T20:37:36.886Z,20.32
2019-06-07T20:40:22.905Z,19.93
2019-06-07T20:42:37.549Z,19.61
2019-06-07T20:45:08.196Z,19.78
2019-06-07T20:47:36.693Z,19.48
2019-06-07T20:50:08.436Z,19.33
2019-06-07T20:52:37.186Z,19.01
2019-06-07T20:55:09.118Z,18.91
2019-06-07T20:57:37.638Z,18.79
2019-06-07T21:00:15.945Z,18.40
2019-06-07T21:02:38.647Z,18.22
2019-06-07T21:05:07.647Z,18.04
2019-06-07T21:07:36.113Z,18.16
2019-06-07T21:10:10.404Z,18.09
2019-06-07T21:12:38.815Z,17.94
2019-06-07T21:15:12.209Z,17.58
2019-06-07T21:17:38.291Z,17.16
2019-06-07T21:20:10.296Z,17.17
2019-06-07T21:22:37.860Z,17.30
2019-06-07T21:25:10.181Z,17.16
2019-06-07T21:27:39.646Z,17.16
2019-06-07T21:30:09.605Z,17.28
2019-06-07T21:32:38.175Z,17.37
2019-06-07T21:35:08.004Z,17.57
2019-06-07T21:37:36.508Z,17.57
2019-06-07T21:40:08.521Z,17.69
2019-06-07T21:42:36.933Z,17.82
2019-06-07T21:45:07.858Z,17.99
2019-06-07T21:47:36.816Z,17.93
2019-06-07T21:50:08.831Z,17.72
2019-06-07T21:52:37.289Z,17.42
2019-06-07T21:55:08.858Z,17.43
2019-06-07T21:57:38.062Z,17.51
2019-06-07T22:00:28.654Z,17.40
2019-06-07T22:02:57.120Z,17.62
2019-06-07T22:05:25.548Z,17.87
2019-06-07T22:07:53.950Z,18.04
2019-06-07T22:10:22.458Z,18.20
2019-06-07T22:12:50.871Z,18.08
2019-06-07T22:15:33.004Z,18.15
2019-06-07T22:17:49.468Z,17.94
2019-06-07T22:20:17.864Z,17.76
2019-06-07T22:22:46.269Z,17.69
2019-06-07T22:25:15.139Z,17.67
2019-06-07T22:27:43.550Z,17.66
2019-06-07T22:30:12.624Z,17.64
2019-06-07T22:32:41.061Z,17.55
2019-06-07T22:35:10.794Z,17.39
2019-06-07T22:37:39.282Z,17.09
2019-06-07T22:40:08.525Z,16.99
2019-06-07T22:42:37.489Z,17.13
2019-06-07T22:45:07.916Z,17.14
2019-06-07T22:47:36.680Z,17.01
2019-06-07T22:50:08.456Z,16.95
2019-06-07T22:52:37.072Z,16.82
2019-06-07T22:55:10.150Z,16.72
2019-06-07T22:57:58.167Z,16.62
2019-06-07T23:00:28.631Z,16.64
2019-06-07T23:02:57.045Z,16.46
2019-06-07T23:05:25.453Z,16.60
2019-06-07T23:07:53.866Z,16.47
2019-06-07T23:10:22.370Z,16.43
2019-06-07T23:12:50.772Z,16.40
2019-06-07T23:15:20.853Z,16.20
2019-06-07T23:17:49.357Z,16.15
2019-06-07T23:20:18.201Z,16.46
2019-06-07T23:22:46.617Z,16.35
2019-06-07T23:25:20.146Z,16.33
2019-06-07T23:27:45.313Z,16.30
2019-06-07T23:30:14.630Z,16.36
2019-06-07T23:32:43.109Z,16.50
2019-06-07T23:35:12.854Z,16.40
2019-06-07T23:37:41.300Z,16.22
2019-06-07T23:40:11.165Z,16.15
2019-06-07T23:42:39.687Z,16.13
2019-06-07T23:45:08.821Z,15.96
2019-06-07T23:47:37.229Z,15.97
2019-06-07T23:50:06.805Z,16.10
2019-06-07T23:52:35.216Z,16.20
2019-06-07T23:55:05.256Z,16.06
2019-06-07T23:57:33.666Z,15.88
